CEB143 RPLL-RPVE
Flight info
| Callsign | CEB143 |
|---|---|
| Flight time | 0h 41m |
| Altitude | 23000 |
| Route | VERDE2V VERDE W24 TAPER TAPER7A |
| Aircraft | A320/M-SDE3FGHIRWY/LB1 |
Departure
| Time | 2026-04-25 12:43 |
|---|---|
| Airport | Ninoy Aquino International Airport (RPLL) |
Arrival
| Time | 2026-04-25 13:25 |
|---|---|
| Airport | Godofredo P. Ramos Airport (RPVE) |
| Time | Latitude | Longitude | Altitude | Speed | Heading |
|---|---|---|---|---|---|
| 2026-04-25 11:52 | 14.51652 | 121.01714 | 82 ft | 0 kts | 225° |
| 2026-04-25 12:20 | 14.51655 | 121.01717 | 82 ft | 2 kts | 225° |
| 2026-04-25 12:20 | 14.51666 | 121.01728 | 82 ft | 2 kts | 225° |
| 2026-04-25 12:21 | 14.51676 | 121.01739 | 82 ft | 2 kts | 225° |
| 2026-04-25 12:21 | 14.51687 | 121.01749 | 82 ft | 1 kts | 225° |
| 2026-04-25 12:21 | 14.51693 | 121.01756 | 82 ft | 2 kts | 207° |
| 2026-04-25 12:21 | 14.51708 | 121.01759 | 82 ft | 2 kts | 166° |
| 2026-04-25 12:22 | 14.51718 | 121.01755 | 82 ft | 0 kts | 139° |
| 2026-04-25 12:22 | 14.51723 | 121.01749 | 82 ft | 0 kts | 134° |
| 2026-04-25 12:25 | 14.51721 | 121.01751 | 82 ft | 1 kts | 135° |
| 2026-04-25 12:26 | 14.51709 | 121.01763 | 82 ft | 3 kts | 137° |
| 2026-04-25 12:26 | 14.51686 | 121.01781 | 82 ft | 5 kts | 151° |
| 2026-04-25 12:26 | 14.51642 | 121.01787 | 82 ft | 7 kts | 192° |
| 2026-04-25 12:26 | 14.51597 | 121.01752 | 82 ft | 8 kts | 226° |
| 2026-04-25 12:27 | 14.51556 | 121.01708 | 82 ft | 7 kts | 225° |
| 2026-04-25 12:27 | 14.51528 | 121.01679 | 82 ft | 4 kts | 224° |
| 2026-04-25 12:27 | 14.51518 | 121.01669 | 82 ft | 0 kts | 224° |
| 2026-04-25 12:28 | 14.51510 | 121.01662 | 82 ft | 3 kts | 224° |
| 2026-04-25 12:28 | 14.51489 | 121.01640 | 82 ft | 4 kts | 224° |
| 2026-04-25 12:28 | 14.51461 | 121.01613 | 82 ft | 6 kts | 219° |
| 2026-04-25 12:29 | 14.51422 | 121.01585 | 82 ft | 7 kts | 212° |
| 2026-04-25 12:29 | 14.51371 | 121.01578 | 82 ft | 8 kts | 153° |
| 2026-04-25 12:29 | 14.51326 | 121.01622 | 82 ft | 9 kts | 135° |
| 2026-04-25 12:29 | 14.51276 | 121.01672 | 82 ft | 10 kts | 135° |
| 2026-04-25 12:30 | 14.51221 | 121.01728 | 82 ft | 11 kts | 134° |
| 2026-04-25 12:30 | 14.51162 | 121.01791 | 82 ft | 12 kts | 134° |
| 2026-04-25 12:30 | 14.51115 | 121.01838 | 82 ft | 5 kts | 135° |
| 2026-04-25 12:30 | 14.51087 | 121.01867 | 82 ft | 6 kts | 135° |
| 2026-04-25 12:31 | 14.51053 | 121.01902 | 82 ft | 7 kts | 137° |
| 2026-04-25 12:31 | 14.51004 | 121.01914 | 82 ft | 8 kts | 203° |
| 2026-04-25 12:31 | 14.50970 | 121.01865 | 82 ft | 9 kts | 244° |
| 2026-04-25 12:31 | 14.50937 | 121.01801 | 82 ft | 10 kts | 240° |
| 2026-04-25 12:32 | 14.50902 | 121.01740 | 82 ft | 9 kts | 242° |
| 2026-04-25 12:32 | 14.50867 | 121.01675 | 82 ft | 10 kts | 239° |
| 2026-04-25 12:32 | 14.50826 | 121.01603 | 82 ft | 12 kts | 239° |
| 2026-04-25 12:32 | 14.50784 | 121.01526 | 82 ft | 12 kts | 240° |
| 2026-04-25 12:33 | 14.50737 | 121.01442 | 82 ft | 13 kts | 240° |
| 2026-04-25 12:33 | 14.50689 | 121.01354 | 82 ft | 14 kts | 240° |
| 2026-04-25 12:33 | 14.50638 | 121.01262 | 82 ft | 15 kts | 240° |
| 2026-04-25 12:33 | 14.50587 | 121.01171 | 82 ft | 15 kts | 240° |
| 2026-04-25 12:34 | 14.50532 | 121.01072 | 82 ft | 16 kts | 240° |
| 2026-04-25 12:34 | 14.50476 | 121.00972 | 82 ft | 12 kts | 240° |
| 2026-04-25 12:34 | 14.50436 | 121.00900 | 82 ft | 11 kts | 240° |
| 2026-04-25 12:34 | 14.50408 | 121.00849 | 82 ft | 12 kts | 240° |
| 2026-04-25 12:35 | 14.50347 | 121.00739 | 82 ft | 13 kts | 241° |
| 2026-04-25 12:35 | 14.50298 | 121.00652 | 82 ft | 14 kts | 240° |
| 2026-04-25 12:35 | 14.50247 | 121.00560 | 82 ft | 15 kts | 240° |
| 2026-04-25 12:35 | 14.50194 | 121.00465 | 82 ft | 13 kts | 239° |
| 2026-04-25 12:36 | 14.50152 | 121.00387 | 82 ft | 11 kts | 241° |
| 2026-04-25 12:36 | 14.50111 | 121.00312 | 82 ft | 12 kts | 240° |
| 2026-04-25 12:36 | 14.50067 | 121.00233 | 82 ft | 13 kts | 240° |
| 2026-04-25 12:36 | 14.50034 | 121.00174 | 82 ft | 8 kts | 239° |
| 2026-04-25 12:37 | 14.50002 | 121.00120 | 82 ft | 9 kts | 239° |
| 2026-04-25 12:37 | 14.49982 | 121.00082 | 82 ft | 5 kts | 240° |
| 2026-04-25 12:37 | 14.49975 | 121.00069 | 82 ft | 0 kts | 240° |
| 2026-04-25 12:37 | 14.49969 | 121.00060 | 82 ft | 2 kts | 240° |
| 2026-04-25 12:38 | 14.49959 | 121.00040 | 82 ft | 3 kts | 240° |
| 2026-04-25 12:38 | 14.49944 | 121.00013 | 82 ft | 3 kts | 240° |
| 2026-04-25 12:38 | 14.49941 | 121.00008 | 82 ft | 0 kts | 240° |
| 2026-04-25 12:38 | 14.49940 | 121.00008 | 82 ft | 0 kts | 240° |
| 2026-04-25 12:39 | 14.49938 | 121.00002 | 82 ft | 1 kts | 240° |
| 2026-04-25 12:39 | 14.49935 | 120.99998 | 82 ft | 2 kts | 240° |
| 2026-04-25 12:39 | 14.49918 | 120.99973 | 82 ft | 5 kts | 224° |
| 2026-04-25 12:40 | 14.49889 | 120.99961 | 82 ft | 3 kts | 175° |
| 2026-04-25 12:40 | 14.49878 | 120.99965 | 82 ft | 0 kts | 152° |
| 2026-04-25 12:40 | 14.49874 | 120.99966 | 82 ft | 1 kts | 152° |
| 2026-04-25 12:41 | 14.49857 | 120.99976 | 82 ft | 4 kts | 152° |
| 2026-04-25 12:41 | 14.49826 | 120.99994 | 82 ft | 6 kts | 144° |
| 2026-04-25 12:41 | 14.49804 | 121.00032 | 82 ft | 6 kts | 92° |
| 2026-04-25 12:41 | 14.49821 | 121.00079 | 82 ft | 7 kts | 60° |
| 2026-04-25 12:42 | 14.49844 | 121.00120 | 82 ft | 0 kts | 59° |
| 2026-04-25 12:42 | 14.49858 | 121.00145 | 82 ft | 24 kts | 60° |
| 2026-04-25 12:43 | 14.50070 | 121.00527 | 82 ft | 95 kts | 61° |
| 2026-04-25 12:43 | 14.50499 | 121.01304 | 83 ft | 152 kts | 62° |
| 2026-04-25 12:43 | 14.51633 | 121.03351 | 1022 ft | 168 kts | 62° |
| 2026-04-25 12:44 | 14.52188 | 121.04365 | 1699 ft | 163 kts | 61° |
| 2026-04-25 12:44 | 14.52748 | 121.05389 | 2092 ft | 169 kts | 61° |
| 2026-04-25 12:44 | 14.53997 | 121.07680 | 2657 ft | 194 kts | 61° |
| 2026-04-25 12:45 | 14.54688 | 121.08946 | 2927 ft | 209 kts | 60° |
| 2026-04-25 12:45 | 14.55428 | 121.10300 | 3115 ft | 230 kts | 60° |
| 2026-04-25 12:45 | 14.57099 | 121.13358 | 3815 ft | 262 kts | 60° |
| 2026-04-25 12:46 | 14.57882 | 121.14793 | 4364 ft | 266 kts | 60° |
| 2026-04-25 12:46 | 14.58793 | 121.16462 | 5085 ft | 268 kts | 60° |
| 2026-04-25 12:46 | 14.59707 | 121.18134 | 5791 ft | 271 kts | 60° |
| 2026-04-25 12:46 | 14.60642 | 121.19846 | 6501 ft | 275 kts | 60° |
| 2026-04-25 12:47 | 14.61559 | 121.21587 | 7250 ft | 278 kts | 67° |
| 2026-04-25 12:47 | 14.61935 | 121.23505 | 7942 ft | 282 kts | 92° |
| 2026-04-25 12:47 | 14.61425 | 121.25449 | 8654 ft | 286 kts | 118° |
| 2026-04-25 12:47 | 14.60101 | 121.27016 | 9336 ft | 292 kts | 141° |
| 2026-04-25 12:48 | 14.58683 | 121.28042 | 9930 ft | 295 kts | 146° |
| 2026-04-25 12:48 | 14.56938 | 121.29185 | 10485 ft | 303 kts | 147° |
| 2026-04-25 12:48 | 14.55095 | 121.30371 | 10791 ft | 320 kts | 147° |
| 2026-04-25 12:48 | 14.53139 | 121.31634 | 10998 ft | 339 kts | 147° |
| 2026-04-25 12:49 | 14.51102 | 121.32957 | 11147 ft | 350 kts | 147° |
| 2026-04-25 12:49 | 14.48989 | 121.34296 | 11610 ft | 357 kts | 152° |
| 2026-04-25 12:49 | 14.46654 | 121.35020 | 12195 ft | 357 kts | 177° |
| 2026-04-25 12:49 | 14.44201 | 121.34637 | 12819 ft | 356 kts | 199° |
| 2026-04-25 12:50 | 14.41870 | 121.33746 | 13422 ft | 357 kts | 201° |
| 2026-04-25 12:50 | 14.39534 | 121.32842 | 13944 ft | 361 kts | 201° |
| 2026-04-25 12:50 | 14.37158 | 121.31960 | 14443 ft | 364 kts | 200° |
| 2026-04-25 12:50 | 14.34766 | 121.31110 | 14945 ft | 367 kts | 199° |
| 2026-04-25 12:51 | 14.32333 | 121.30267 | 15425 ft | 370 kts | 199° |
| 2026-04-25 12:51 | 14.29873 | 121.29433 | 15893 ft | 373 kts | 199° |
| 2026-04-25 12:51 | 14.27370 | 121.28592 | 16358 ft | 375 kts | 199° |
| 2026-04-25 12:51 | 14.24871 | 121.27758 | 16798 ft | 378 kts | 199° |
| 2026-04-25 12:52 | 14.22359 | 121.26923 | 17228 ft | 380 kts | 199° |
| 2026-04-25 12:52 | 14.19848 | 121.26090 | 17664 ft | 382 kts | 199° |
| 2026-04-25 12:52 | 14.17304 | 121.25247 | 18089 ft | 384 kts | 199° |
| 2026-04-25 12:52 | 14.14729 | 121.24395 | 18511 ft | 386 kts | 199° |
| 2026-04-25 12:53 | 14.12159 | 121.23545 | 18919 ft | 388 kts | 199° |
| 2026-04-25 12:53 | 14.09576 | 121.22691 | 19323 ft | 390 kts | 199° |
| 2026-04-25 12:53 | 14.06974 | 121.21832 | 19729 ft | 392 kts | 199° |
| 2026-04-25 12:53 | 14.04376 | 121.20972 | 19974 ft | 393 kts | 199° |
| 2026-04-25 12:54 | 14.01760 | 121.20108 | 20001 ft | 392 kts | 199° |
| 2026-04-25 12:54 | 13.99185 | 121.19257 | 20009 ft | 391 kts | 199° |
| 2026-04-25 12:54 | 13.96579 | 121.18398 | 20009 ft | 391 kts | 199° |
| 2026-04-25 12:54 | 13.93964 | 121.17534 | 20007 ft | 391 kts | 199° |
| 2026-04-25 12:55 | 13.91356 | 121.16674 | 20000 ft | 391 kts | 199° |
| 2026-04-25 12:55 | 13.89629 | 121.16104 | 19995 ft | 391 kts | 199° |
| 2026-04-25 12:55 | 13.86172 | 121.14964 | 19988 ft | 391 kts | 199° |
| 2026-04-25 12:55 | 13.83563 | 121.14104 | 19982 ft | 391 kts | 199° |
| 2026-04-25 12:56 | 13.80943 | 121.13239 | 20031 ft | 395 kts | 199° |
| 2026-04-25 12:56 | 13.78461 | 121.12421 | 20377 ft | 397 kts | 199° |
| 2026-04-25 12:56 | 13.75860 | 121.11565 | 20814 ft | 397 kts | 199° |
| 2026-04-25 12:56 | 13.73218 | 121.10696 | 21211 ft | 398 kts | 199° |
| 2026-04-25 12:57 | 13.70572 | 121.09824 | 21574 ft | 399 kts | 199° |
| 2026-04-25 12:57 | 13.68395 | 121.09108 | 21876 ft | 400 kts | 199° |
| 2026-04-25 12:57 | 13.65708 | 121.08223 | 22237 ft | 402 kts | 199° |
| 2026-04-25 12:57 | 13.63053 | 121.07348 | 22581 ft | 404 kts | 199° |
| 2026-04-25 12:58 | 13.60358 | 121.06461 | 22883 ft | 406 kts | 199° |
| 2026-04-25 12:58 | 13.57669 | 121.05577 | 22941 ft | 406 kts | 199° |
| 2026-04-25 12:58 | 13.54963 | 121.04688 | 22948 ft | 406 kts | 199° |
| 2026-04-25 12:58 | 13.52213 | 121.04066 | 22934 ft | 408 kts | 184° |
| 2026-04-25 12:59 | 13.49388 | 121.04371 | 22949 ft | 412 kts | 165° |
| 2026-04-25 12:59 | 13.46764 | 121.05597 | 22961 ft | 416 kts | 148° |
| 2026-04-25 12:59 | 13.44569 | 121.07138 | 22975 ft | 417 kts | 146° |
| 2026-04-25 12:59 | 13.42182 | 121.08861 | 22983 ft | 417 kts | 146° |
| 2026-04-25 13:00 | 13.39777 | 121.10586 | 22994 ft | 417 kts | 147° |
| 2026-04-25 13:00 | 13.38200 | 121.11707 | 23002 ft | 417 kts | 147° |
| 2026-04-25 13:00 | 13.35012 | 121.13957 | 23007 ft | 417 kts | 147° |
| 2026-04-25 13:00 | 13.32609 | 121.15639 | 23012 ft | 416 kts | 147° |
| 2026-04-25 13:01 | 13.30209 | 121.17318 | 23004 ft | 415 kts | 147° |
| 2026-04-25 13:01 | 13.27821 | 121.18990 | 22734 ft | 415 kts | 147° |
| 2026-04-25 13:01 | 13.25562 | 121.20571 | 22417 ft | 412 kts | 147° |
| 2026-04-25 13:01 | 13.23259 | 121.22184 | 22094 ft | 409 kts | 147° |
| 2026-04-25 13:02 | 13.20914 | 121.23827 | 21764 ft | 407 kts | 147° |
| 2026-04-25 13:02 | 13.18596 | 121.25450 | 21436 ft | 405 kts | 147° |
| 2026-04-25 13:02 | 13.16267 | 121.27081 | 21109 ft | 403 kts | 147° |
| 2026-04-25 13:02 | 13.13948 | 121.28708 | 20785 ft | 402 kts | 146° |
| 2026-04-25 13:03 | 13.11634 | 121.30329 | 20458 ft | 400 kts | 146° |
| 2026-04-25 13:03 | 13.09345 | 121.31933 | 20131 ft | 398 kts | 146° |
| 2026-04-25 13:03 | 13.07067 | 121.33529 | 19804 ft | 396 kts | 146° |
| 2026-04-25 13:03 | 13.04796 | 121.35119 | 19479 ft | 394 kts | 146° |
| 2026-04-25 13:04 | 13.02522 | 121.36711 | 19148 ft | 392 kts | 146° |
| 2026-04-25 13:04 | 13.00258 | 121.38294 | 18816 ft | 390 kts | 146° |
| 2026-04-25 13:04 | 12.98035 | 121.39850 | 18493 ft | 387 kts | 146° |
| 2026-04-25 13:04 | 12.95803 | 121.41412 | 18160 ft | 386 kts | 146° |
| 2026-04-25 13:05 | 12.93594 | 121.42956 | 17831 ft | 385 kts | 146° |
| 2026-04-25 13:05 | 12.91387 | 121.44499 | 17501 ft | 384 kts | 146° |
| 2026-04-25 13:05 | 12.89155 | 121.46059 | 17169 ft | 382 kts | 146° |
| 2026-04-25 13:05 | 12.86966 | 121.47591 | 16840 ft | 380 kts | 146° |
| 2026-04-25 13:06 | 12.84792 | 121.49113 | 16512 ft | 379 kts | 146° |
| 2026-04-25 13:06 | 12.82613 | 121.50635 | 16179 ft | 377 kts | 146° |
| 2026-04-25 13:06 | 12.80448 | 121.52149 | 15851 ft | 375 kts | 146° |
| 2026-04-25 13:06 | 12.78292 | 121.53655 | 15521 ft | 373 kts | 146° |
| 2026-04-25 13:07 | 12.76273 | 121.55064 | 15210 ft | 371 kts | 146° |
| 2026-04-25 13:07 | 12.74264 | 121.56464 | 14898 ft | 369 kts | 146° |
| 2026-04-25 13:07 | 12.72292 | 121.57842 | 14593 ft | 367 kts | 146° |
| 2026-04-25 13:07 | 12.70236 | 121.59277 | 14274 ft | 366 kts | 146° |
| 2026-04-25 13:08 | 12.68121 | 121.60753 | 13944 ft | 365 kts | 146° |
| 2026-04-25 13:08 | 12.66035 | 121.62209 | 13618 ft | 364 kts | 146° |
| 2026-04-25 13:08 | 12.63920 | 121.63684 | 13286 ft | 363 kts | 146° |
| 2026-04-25 13:08 | 12.61856 | 121.65124 | 12959 ft | 361 kts | 146° |
| 2026-04-25 13:09 | 12.59769 | 121.66578 | 12628 ft | 359 kts | 146° |
| 2026-04-25 13:09 | 12.57706 | 121.68015 | 12299 ft | 357 kts | 146° |
| 2026-04-25 13:09 | 12.55666 | 121.69437 | 11972 ft | 355 kts | 146° |
| 2026-04-25 13:09 | 12.53619 | 121.70863 | 11640 ft | 353 kts | 145° |
| 2026-04-25 13:10 | 12.51593 | 121.72275 | 11309 ft | 350 kts | 145° |
| 2026-04-25 13:10 | 12.49592 | 121.73669 | 10980 ft | 348 kts | 145° |
| 2026-04-25 13:10 | 12.47596 | 121.75060 | 10649 ft | 345 kts | 145° |
| 2026-04-25 13:10 | 12.45622 | 121.76436 | 10314 ft | 337 kts | 144° |
| 2026-04-25 13:11 | 12.43701 | 121.77774 | 9986 ft | 330 kts | 144° |
| 2026-04-25 13:11 | 12.41827 | 121.79079 | 9736 ft | 321 kts | 144° |
| 2026-04-25 13:11 | 12.40006 | 121.80347 | 9562 ft | 310 kts | 144° |
| 2026-04-25 13:11 | 12.38246 | 121.81546 | 9387 ft | 300 kts | 147° |
| 2026-04-25 13:12 | 12.36405 | 121.82564 | 9193 ft | 293 kts | 154° |
| 2026-04-25 13:12 | 12.34513 | 121.83344 | 9004 ft | 293 kts | 160° |
| 2026-04-25 13:12 | 12.32584 | 121.83948 | 8818 ft | 292 kts | 162° |
| 2026-04-25 13:12 | 12.31281 | 121.84335 | 8692 ft | 291 kts | 162° |
| 2026-04-25 13:13 | 12.28658 | 121.85106 | 8436 ft | 289 kts | 162° |
| 2026-04-25 13:13 | 12.26729 | 121.85674 | 8247 ft | 288 kts | 161° |
| 2026-04-25 13:13 | 12.24807 | 121.86243 | 8058 ft | 287 kts | 161° |
| 2026-04-25 13:13 | 12.22875 | 121.86817 | 7867 ft | 286 kts | 161° |
| 2026-04-25 13:14 | 12.20983 | 121.87380 | 7679 ft | 284 kts | 161° |
| 2026-04-25 13:14 | 12.19060 | 121.87952 | 7487 ft | 283 kts | 161° |
| 2026-04-25 13:14 | 12.17183 | 121.88512 | 7298 ft | 282 kts | 160° |
| 2026-04-25 13:14 | 12.15289 | 121.89076 | 7107 ft | 281 kts | 160° |
| 2026-04-25 13:15 | 12.13423 | 121.89631 | 6918 ft | 280 kts | 160° |
| 2026-04-25 13:15 | 12.11541 | 121.90192 | 6727 ft | 279 kts | 160° |
| 2026-04-25 13:15 | 12.09671 | 121.90748 | 6536 ft | 278 kts | 160° |
| 2026-04-25 13:15 | 12.07807 | 121.91302 | 6345 ft | 277 kts | 159° |
| 2026-04-25 13:16 | 12.05903 | 121.91689 | 6138 ft | 282 kts | 177° |
| 2026-04-25 13:16 | 12.03991 | 121.91145 | 5945 ft | 292 kts | 208° |
| 2026-04-25 13:16 | 12.02514 | 121.89703 | 5760 ft | 298 kts | 232° |
| 2026-04-25 13:16 | 12.01359 | 121.87968 | 5566 ft | 298 kts | 234° |
| 2026-04-25 13:17 | 12.00208 | 121.86216 | 5351 ft | 296 kts | 234° |
| 2026-04-25 13:17 | 11.99043 | 121.84473 | 5135 ft | 295 kts | 233° |
| 2026-04-25 13:17 | 11.97870 | 121.82745 | 4920 ft | 295 kts | 233° |
| 2026-04-25 13:17 | 11.96693 | 121.81028 | 4705 ft | 294 kts | 233° |
| 2026-04-25 13:18 | 11.95523 | 121.79330 | 4491 ft | 293 kts | 233° |
| 2026-04-25 13:18 | 11.94354 | 121.77633 | 4276 ft | 293 kts | 233° |
| 2026-04-25 13:18 | 11.93179 | 121.75930 | 4035 ft | 288 kts | 233° |
| 2026-04-25 13:18 | 11.91925 | 121.74390 | 3796 ft | 279 kts | 214° |
| 2026-04-25 13:19 | 11.90213 | 121.73698 | 3747 ft | 253 kts | 177° |
| 2026-04-25 13:19 | 11.88566 | 121.74020 | 3758 ft | 235 kts | 149° |
| 2026-04-25 13:19 | 11.87122 | 121.74810 | 3768 ft | 233 kts | 145° |
| 2026-04-25 13:19 | 11.86169 | 121.75356 | 3763 ft | 233 kts | 146° |
| 2026-04-25 13:20 | 11.84314 | 121.76487 | 3749 ft | 229 kts | 131° |
| 2026-04-25 13:20 | 11.83600 | 121.77811 | 3685 ft | 207 kts | 92° |
| 2026-04-25 13:20 | 11.83925 | 121.79170 | 3456 ft | 200 kts | 58° |
| 2026-04-25 13:20 | 11.84693 | 121.80339 | 3264 ft | 194 kts | 59° |
| 2026-04-25 13:21 | 11.85372 | 121.81496 | 3080 ft | 189 kts | 62° |
| 2026-04-25 13:21 | 11.86010 | 121.82667 | 2800 ft | 187 kts | 63° |
| 2026-04-25 13:21 | 11.86617 | 121.83829 | 2522 ft | 185 kts | 63° |
| 2026-04-25 13:21 | 11.87220 | 121.84992 | 2197 ft | 186 kts | 62° |
| 2026-04-25 13:22 | 11.87845 | 121.86152 | 1754 ft | 188 kts | 62° |
| 2026-04-25 13:22 | 11.88488 | 121.87312 | 1312 ft | 188 kts | 61° |
| 2026-04-25 13:22 | 11.89086 | 121.88440 | 1184 ft | 168 kts | 65° |
| 2026-04-25 13:23 | 11.90000 | 121.90402 | 824 ft | 139 kts | 65° |
| 2026-04-25 13:23 | 11.90397 | 121.91255 | 619 ft | 128 kts | 64° |
| 2026-04-25 13:23 | 11.90801 | 121.92067 | 457 ft | 128 kts | 63° |
| 2026-04-25 13:23 | 11.91205 | 121.92876 | 395 ft | 128 kts | 63° |
| 2026-04-25 13:24 | 11.91342 | 121.93147 | 357 ft | 129 kts | 63° |
| 2026-04-25 13:24 | 11.92417 | 121.95325 | 30 ft | 127 kts | 63° |
| 2026-04-25 13:24 | 11.92724 | 121.95932 | 49 ft | 55 kts | 60° |
| 2026-04-25 13:25 | 11.92857 | 121.96196 | 59 ft | 27 kts | 63° |
| 2026-04-25 13:25 | 11.92927 | 121.96335 | 63 ft | 16 kts | 63° |
| 2026-04-25 13:25 | 11.92967 | 121.96416 | 64 ft | 8 kts | 64° |
| 2026-04-25 13:25 | 11.92944 | 121.96462 | 64 ft | 7 kts | 153° |
| 2026-04-25 13:26 | 11.92906 | 121.96481 | 64 ft | 6 kts | 154° |
| 2026-04-25 13:26 | 11.92857 | 121.96506 | 63 ft | 7 kts | 152° |
| 2026-04-25 13:26 | 11.92816 | 121.96525 | 62 ft | 6 kts | 168° |
| 2026-04-25 13:26 | 11.92778 | 121.96500 | 62 ft | 6 kts | 243° |
| 2026-04-25 13:27 | 11.92768 | 121.96478 | 61 ft | 3 kts | 245° |
| 2026-04-25 13:27 | 11.92765 | 121.96471 | 61 ft | 4 kts | 245° |